createdAt,value
2018-09-15T00:01:54.077Z,12.77
2018-09-15T00:04:23.055Z,13.80
2018-09-15T00:06:51.401Z,11.73
2018-09-15T00:09:19.586Z,11.80
2018-09-15T00:11:47.728Z,13.80
2018-09-15T00:14:15.924Z,12.87
2018-09-15T00:16:44.080Z,13.07
2018-09-15T00:19:12.284Z,12.27
2018-09-15T00:21:42.008Z,13.83
2018-09-15T00:24:10.626Z,13.80
2018-09-15T00:26:40.073Z,14.57
2018-09-15T00:29:08.615Z,14.93
2018-09-15T00:31:36.942Z,13.63
2018-09-15T00:34:05.218Z,13.10
2018-09-15T00:36:33.468Z,13.33
2018-09-15T00:39:01.760Z,14.10
2018-09-15T00:41:29.767Z,13.23
2018-09-15T00:43:58.578Z,13.87
2018-09-15T00:46:26.798Z,13.87
2018-09-15T00:48:54.922Z,14.13
2018-09-15T00:51:23.061Z,14.70
2018-09-15T00:53:51.297Z,14.90
2018-09-15T00:56:19.537Z,14.43
2018-09-15T00:58:47.848Z,13.27
2018-09-15T01:01:16.115Z,15.47
2018-09-15T01:03:44.607Z,14.53
2018-09-15T01:06:13.549Z,13.90
2018-09-15T01:08:41.720Z,14.73
2018-09-15T01:11:09.885Z,14.90
2018-09-15T01:13:38.179Z,16.17
2018-09-15T01:16:06.357Z,15.93
2018-09-15T01:18:34.584Z,15.40
2018-09-15T01:21:02.805Z,14.70
2018-09-15T01:23:31.065Z,17.40
2018-09-15T01:25:59.371Z,14.77
2018-09-15T01:28:27.530Z,15.60
2018-09-15T01:30:55.715Z,16.17
2018-09-15T01:33:24.197Z,14.60
2018-09-15T01:35:52.608Z,15.83
2018-09-15T01:38:20.830Z,15.20
2018-09-15T01:40:48.989Z,17.23
2018-09-15T01:43:17.269Z,16.97
2018-09-15T01:45:45.529Z,16.03
2018-09-15T01:48:13.765Z,16.23
2018-09-15T01:50:42.019Z,16.53
2018-09-15T01:53:10.222Z,15.70
2018-09-15T01:55:38.514Z,16.57
2018-09-15T01:58:06.821Z,16.57
2018-09-15T02:00:34.985Z,15.83
2018-09-15T02:03:03.446Z,16.13
2018-09-15T02:05:31.636Z,17.97
2018-09-15T02:07:59.900Z,18.03
2018-09-15T02:10:28.049Z,17.13
2018-09-15T02:12:56.166Z,15.80
2018-09-15T02:15:24.407Z,15.83
2018-09-15T02:17:52.620Z,16.10
2018-09-15T02:20:20.864Z,16.87
2018-09-15T02:22:49.002Z,15.40
2018-09-15T02:25:17.285Z,15.20
2018-09-15T02:27:45.450Z,15.57
2018-09-15T02:30:13.677Z,15.13
2018-09-15T02:32:41.964Z,14.83
2018-09-15T02:35:10.151Z,15.57
2018-09-15T02:37:38.403Z,14.70
2018-09-15T02:40:06.777Z,14.33
2018-09-15T02:42:34.947Z,14.00
2018-09-15T02:45:03.170Z,15.07
2018-09-15T02:47:31.396Z,14.40
2018-09-15T02:49:59.674Z,14.67
2018-09-15T02:52:27.919Z,13.47
2018-09-15T02:54:56.304Z,14.93
2018-09-15T02:57:24.451Z,13.37
2018-09-15T02:59:52.713Z,14.97
2018-09-15T03:02:20.957Z,13.90
2018-09-15T03:04:49.215Z,14.30
2018-09-15T03:07:17.398Z,11.97
2018-09-15T03:09:45.643Z,12.93
2018-09-15T03:12:13.843Z,15.67
2018-09-15T03:14:41.942Z,14.20
2018-09-15T03:17:10.065Z,13.90
2018-09-15T03:19:38.317Z,14.83
2018-09-15T03:22:06.580Z,13.93
2018-09-15T03:24:34.820Z,15.40
2018-09-15T03:27:02.993Z,14.40
2018-09-15T03:29:31.205Z,14.23
2018-09-15T03:31:59.666Z,15.97
2018-09-15T03:34:27.822Z,15.10
2018-09-15T03:36:55.960Z,14.60
2018-09-15T03:39:24.184Z,14.83
2018-09-15T03:41:52.460Z,15.30
2018-09-15T03:44:20.684Z,14.80
2018-09-15T03:46:49.008Z,15.60
2018-09-15T03:49:17.188Z,14.83
2018-09-15T03:51:45.338Z,14.23
2018-09-15T03:54:17.783Z,13.97
2018-09-15T03:56:45.894Z,12.63
2018-09-15T03:59:14.779Z,13.57
2018-09-15T04:01:43.916Z,13.20
2018-09-15T04:04:12.156Z,12.43
2018-09-15T04:06:40.590Z,14.27
2018-09-15T04:09:10.114Z,13.57
2018-09-15T04:11:38.658Z,12.53
2018-09-15T04:14:06.970Z,13.10
2018-09-15T04:16:35.222Z,12.37
2018-09-15T04:19:03.558Z,12.80
2018-09-15T04:21:31.741Z,11.73
2018-09-15T04:24:00.050Z,12.60
2018-09-15T04:26:29.130Z,11.10
2018-09-15T04:28:57.396Z,11.93
2018-09-15T04:31:26.210Z,11.77
2018-09-15T04:33:54.511Z,10.77
2018-09-15T04:36:22.673Z,11.43
2018-09-15T04:38:50.882Z,11.50
2018-09-15T04:41:19.249Z,11.07
2018-09-15T04:43:47.748Z,11.13
2018-09-15T04:46:16.120Z,11.03
2018-09-15T04:48:44.345Z,11.77
2018-09-15T04:51:12.595Z,11.60
2018-09-15T04:53:41.024Z,10.83
2018-09-15T04:56:09.704Z,12.03
2018-09-15T04:58:37.901Z,12.30
2018-09-15T05:01:06.178Z,12.83
2018-09-15T05:03:34.453Z,11.20
2018-09-15T05:06:02.576Z,12.43
2018-09-15T05:08:30.854Z,13.30
2018-09-15T05:10:59.146Z,12.00
2018-09-15T05:13:27.381Z,12.70
2018-09-15T05:15:55.519Z,11.53
2018-09-15T05:18:23.831Z,12.63
2018-09-15T05:20:52.086Z,10.73
2018-09-15T05:23:20.343Z,11.87
2018-09-15T05:25:48.577Z,10.70
2018-09-15T05:28:16.805Z,10.63
2018-09-15T05:30:45.065Z,10.00
2018-09-15T05:33:13.776Z,12.03
2018-09-15T05:35:43.923Z,10.93
2018-09-15T05:38:12.130Z,10.70
2018-09-15T05:40:40.459Z,11.03
2018-09-15T05:43:08.600Z,13.37
2018-09-15T05:45:36.909Z,11.63
2018-09-15T05:48:05.201Z,11.87
2018-09-15T05:50:33.426Z,12.53
2018-09-15T05:53:02.330Z,11.70
2018-09-15T05:55:31.494Z,13.73
2018-09-15T05:57:59.648Z,12.63
2018-09-15T06:00:27.778Z,13.00
2018-09-15T06:02:55.908Z,12.13
2018-09-15T06:05:24.044Z,12.70
2018-09-15T06:07:52.816Z,13.43
2018-09-15T06:10:21.036Z,12.70
2018-09-15T06:12:49.517Z,11.27
2018-09-15T06:15:17.710Z,11.87
2018-09-15T06:17:46.060Z,13.50
2018-09-15T06:20:14.285Z,13.30
2018-09-15T06:22:42.468Z,12.83
2018-09-15T06:25:10.621Z,13.50
2018-09-15T06:27:38.748Z,12.67
2018-09-15T06:30:07.533Z,13.37
2018-09-15T06:32:35.667Z,16.57
2018-09-15T06:35:03.903Z,12.93
2018-09-15T06:37:32.307Z,14.40
2018-09-15T06:40:00.531Z,14.50
2018-09-15T06:42:28.816Z,13.90
2018-09-15T06:44:58.053Z,14.53
2018-09-15T06:47:26.282Z,14.87
2018-09-15T06:49:54.509Z,13.63
2018-09-15T06:52:22.667Z,14.77
2018-09-15T06:54:50.737Z,13.80
2018-09-15T06:57:18.960Z,16.40
2018-09-15T06:59:47.234Z,12.87
2018-09-15T07:02:15.485Z,13.60
2018-09-15T07:04:43.625Z,16.33
2018-09-15T07:07:11.799Z,17.47
2018-09-15T07:09:39.967Z,15.07
2018-09-15T07:12:08.147Z,13.07
2018-09-15T07:14:36.327Z,13.00
2018-09-15T07:17:04.532Z,12.43
2018-09-15T07:19:32.830Z,13.63
2018-09-15T07:22:01.033Z,14.37
2018-09-15T07:24:29.501Z,14.97
2018-09-15T07:26:57.695Z,14.53
2018-09-15T07:29:25.817Z,14.57
2018-09-15T07:31:54.062Z,14.27
2018-09-15T07:34:22.217Z,13.17
2018-09-15T07:36:50.499Z,11.83
2018-09-15T07:39:18.818Z,13.40
2018-09-15T07:41:46.991Z,13.57
2018-09-15T07:44:15.257Z,13.57
2018-09-15T07:46:43.508Z,13.70
2018-09-15T07:49:11.789Z,12.87
2018-09-15T07:51:39.995Z,13.30
2018-09-15T07:54:08.139Z,11.13
2018-09-15T07:56:37.091Z,12.17
2018-09-15T07:59:05.628Z,10.30
2018-09-15T08:01:33.788Z,11.37
2018-09-15T08:04:02.088Z,10.60
2018-09-15T08:06:30.422Z,8.97
2018-09-15T08:08:58.836Z,9.60
2018-09-15T08:11:26.986Z,8.27
2018-09-15T08:13:55.120Z,9.47
2018-09-15T08:16:23.472Z,8.50
2018-09-15T08:18:51.671Z,7.13
2018-09-15T08:21:20.023Z,7.13
2018-09-15T08:23:48.168Z,6.43
2018-09-15T08:26:16.798Z,7.57
2018-09-15T08:28:44.833Z,6.97
2018-09-15T08:31:12.964Z,5.90
2018-09-15T08:33:41.089Z,6.20
2018-09-15T08:36:15.826Z,6.93
2018-09-15T08:38:44.468Z,5.67
2018-09-15T08:41:12.673Z,5.73
2018-09-15T08:43:40.896Z,5.00
2018-09-15T08:46:09.164Z,6.87
2018-09-15T08:48:37.376Z,5.60
2018-09-15T08:51:05.747Z,6.63
2018-09-15T08:53:34.077Z,6.10
2018-09-15T08:56:02.231Z,5.50
2018-09-15T08:58:30.420Z,5.37
2018-09-15T09:00:58.646Z,5.90
2018-09-15T09:03:26.861Z,4.70
2018-09-15T09:05:55.079Z,4.50
2018-09-15T09:08:23.225Z,4.47
2018-09-15T09:10:51.379Z,3.93
2018-09-15T09:13:19.853Z,3.53
2018-09-15T09:15:47.997Z,3.65
2018-09-15T09:18:16.306Z,3.98
2018-09-15T09:20:44.453Z,4.15
2018-09-15T09:23:12.787Z,2.85
2018-09-15T09:25:40.972Z,2.98
2018-09-15T09:28:09.322Z,3.22
2018-09-15T09:30:37.417Z,2.80
2018-09-15T09:33:05.632Z,2.30
2018-09-15T09:35:33.809Z,2.72
2018-09-15T09:38:01.964Z,2.22
2018-09-15T09:40:30.109Z,2.20
2018-09-15T09:42:58.352Z,1.80
2018-09-15T09:45:26.693Z,1.82
2018-09-15T09:47:55.065Z,1.70
2018-09-15T09:50:23.207Z,1.40
2018-09-15T09:52:51.445Z,1.10
2018-09-15T09:55:19.723Z,1.50
2018-09-15T09:57:47.915Z,1.47
2018-09-15T10:00:21.910Z,1.27
2018-09-15T10:02:50.052Z,1.10
2018-09-15T10:05:18.223Z,1.10
2018-09-15T10:07:46.464Z,0.88
2018-09-15T10:10:14.872Z,1.10
2018-09-15T10:12:43.108Z,1.10
2018-09-15T10:15:11.486Z,1.20
2018-09-15T10:17:39.624Z,1.10
2018-09-15T10:20:07.880Z,1.40
2018-09-15T10:22:36.146Z,1.50
2018-09-15T10:25:04.306Z,1.40
2018-09-15T10:27:32.538Z,1.55
2018-09-15T10:30:00.694Z,1.32
2018-09-15T10:32:29.018Z,1.62
2018-09-15T10:34:57.314Z,1.50
2018-09-15T10:37:26.083Z,1.60
2018-09-15T10:39:54.357Z,1.10
2018-09-15T10:42:22.618Z,1.55
2018-09-15T10:44:50.844Z,1.20
2018-09-15T10:47:19.097Z,1.05
2018-09-15T10:49:47.520Z,1.70
2018-09-15T10:52:15.803Z,1.30
2018-09-15T10:54:43.926Z,1.30
2018-09-15T10:57:12.133Z,1.20
2018-09-15T10:59:40.359Z,0.80
2018-09-15T11:02:12.132Z,1.35
2018-09-15T11:04:42.158Z,1.15
2018-09-15T11:07:10.307Z,1.10
2018-09-15T11:09:38.443Z,1.40
2018-09-15T11:12:06.625Z,1.40
2018-09-15T11:14:34.896Z,1.00
2018-09-15T11:17:02.991Z,1.27
2018-09-15T11:19:31.143Z,1.20
2018-09-15T11:21:59.591Z,1.12
2018-09-15T11:24:27.749Z,0.80
2018-09-15T11:26:56.295Z,1.00
2018-09-15T11:29:24.481Z,0.85
2018-09-15T11:31:52.665Z,0.90
2018-09-15T11:34:20.843Z,0.90
2018-09-15T11:36:48.943Z,1.02
2018-09-15T11:39:17.242Z,1.17
2018-09-15T11:41:45.445Z,1.10
2018-09-15T11:44:13.674Z,1.30
2018-09-15T11:46:41.845Z,0.95
2018-09-15T11:49:09.988Z,1.10
2018-09-15T11:51:38.279Z,1.05
2018-09-15T11:54:07.249Z,1.37
2018-09-15T11:56:35.408Z,1.15
2018-09-15T11:59:03.587Z,0.90
2018-09-15T12:01:31.887Z,1.22
2018-09-15T12:04:00.080Z,1.40
2018-09-15T12:06:28.319Z,1.55
2018-09-15T12:08:57.093Z,1.35
2018-09-15T12:11:25.532Z,1.25
2018-09-15T12:13:54.409Z,1.60
2018-09-15T12:16:22.706Z,1.60
2018-09-15T12:18:50.859Z,1.77
2018-09-15T12:21:19.080Z,1.50
2018-09-15T12:23:47.172Z,1.50
2018-09-15T12:26:15.378Z,1.60
2018-09-15T12:28:43.600Z,1.55
2018-09-15T12:31:11.794Z,1.20
2018-09-15T12:33:40.097Z,1.77
2018-09-15T12:36:08.395Z,1.62
2018-09-15T12:38:36.698Z,1.37
2018-09-15T12:41:04.939Z,1.70
2018-09-15T12:43:33.260Z,1.52
2018-09-15T12:46:01.639Z,1.17
2018-09-15T12:48:29.914Z,1.15
2018-09-15T12:50:58.282Z,1.75
2018-09-15T12:53:26.565Z,1.40
2018-09-15T12:55:54.803Z,1.40
2018-09-15T12:58:23.069Z,1.30
2018-09-15T13:00:51.225Z,1.50
2018-09-15T13:03:19.459Z,1.12
2018-09-15T13:05:47.801Z,1.02
2018-09-15T13:08:15.954Z,1.60
2018-09-15T13:10:44.244Z,1.50
2018-09-15T13:13:12.453Z,1.52
2018-09-15T13:15:40.707Z,1.65
2018-09-15T13:18:08.819Z,1.80
2018-09-15T13:20:37.024Z,1.45
2018-09-15T13:23:05.329Z,1.40
2018-09-15T13:25:33.515Z,1.40
2018-09-15T13:28:02.707Z,1.40
2018-09-15T13:30:31.160Z,1.40
2018-09-15T13:32:59.499Z,1.47
2018-09-15T13:35:27.615Z,1.40
2018-09-15T13:37:55.913Z,1.53
2018-09-15T13:40:24.099Z,1.40
2018-09-15T13:42:52.301Z,1.40
2018-09-15T13:45:20.367Z,1.57
2018-09-15T13:47:48.581Z,1.37
2018-09-15T13:50:20.877Z,1.40
2018-09-15T13:52:49.283Z,1.67
2018-09-15T13:55:17.572Z,1.10
2018-09-15T13:57:45.652Z,1.10
2018-09-15T14:00:14.146Z,1.73
2018-09-15T14:02:43.425Z,1.63
2018-09-15T14:05:13.164Z,2.80
2018-09-15T14:07:41.862Z,1.50
2018-09-15T14:10:10.422Z,1.13
2018-09-15T14:12:39.022Z,1.53
2018-09-15T14:15:07.221Z,1.40
2018-09-15T14:17:35.441Z,1.60
2018-09-15T14:20:04.042Z,1.37
2018-09-15T14:22:33.341Z,1.40
2018-09-15T14:25:01.565Z,1.50
2018-09-15T14:27:29.657Z,1.40
2018-09-15T14:29:57.881Z,1.47
2018-09-15T14:32:26.108Z,1.40
2018-09-15T14:34:54.450Z,1.10
2018-09-15T14:37:22.572Z,1.40
2018-09-15T14:39:50.832Z,1.30
2018-09-15T14:42:19.109Z,1.40
2018-09-15T14:44:47.318Z,1.00
2018-09-15T14:47:16.855Z,1.10
2018-09-15T14:49:45.040Z,1.43
2018-09-15T14:52:13.710Z,1.13
2018-09-15T14:54:41.805Z,1.00
2018-09-15T14:57:10.066Z,1.00
2018-09-15T14:59:38.298Z,1.00
2018-09-15T15:02:06.622Z,1.20
2018-09-15T15:04:34.822Z,1.40
2018-09-15T15:07:03.093Z,1.30
2018-09-15T15:09:31.331Z,1.10
2018-09-15T15:11:59.585Z,1.27
2018-09-15T15:14:27.768Z,1.90
2018-09-15T15:16:55.883Z,1.10
2018-09-15T15:19:24.045Z,1.67
2018-09-15T15:21:52.215Z,1.10
2018-09-15T15:24:20.349Z,1.20
2018-09-15T15:26:48.575Z,1.00
2018-09-15T15:29:17.006Z,1.20
2018-09-15T15:31:45.191Z,1.00
2018-09-15T15:34:13.256Z,1.20
2018-09-15T15:36:41.478Z,0.90
2018-09-15T15:39:10.238Z,1.20
2018-09-15T15:41:38.388Z,0.90
2018-09-15T15:44:06.626Z,1.17
2018-09-15T15:46:34.878Z,1.00
2018-09-15T15:49:03.728Z,1.10
2018-09-15T15:51:32.240Z,1.00
2018-09-15T15:54:00.314Z,0.90
2018-09-15T15:56:28.495Z,1.00
2018-09-15T15:58:56.714Z,1.10
2018-09-15T16:01:24.973Z,1.20
2018-09-15T16:03:53.172Z,1.20
2018-09-15T16:06:21.459Z,1.00
2018-09-15T16:08:50.381Z,0.70
2018-09-15T16:11:18.774Z,1.00
2018-09-15T16:13:47.900Z,1.20
2018-09-15T16:16:16.172Z,1.10
2018-09-15T16:18:44.505Z,0.90
2018-09-15T16:21:12.726Z,1.03
2018-09-15T16:23:41.003Z,0.83
2018-09-15T16:26:09.102Z,1.10
2018-09-15T16:28:38.778Z,0.97
2018-09-15T16:31:06.964Z,1.00
2018-09-15T16:33:35.127Z,1.00
2018-09-15T16:36:03.471Z,1.30
2018-09-15T16:38:31.756Z,1.00
2018-09-15T16:40:59.962Z,0.97
2018-09-15T16:43:28.180Z,0.90
2018-09-15T16:45:56.386Z,1.40
2018-09-15T16:48:24.647Z,1.20
2018-09-15T16:50:52.891Z,1.43
2018-09-15T16:53:21.061Z,1.10
2018-09-15T16:55:49.362Z,1.10
2018-09-15T16:58:17.482Z,1.20
2018-09-15T17:00:45.760Z,1.30
2018-09-15T17:03:14.131Z,1.40
2018-09-15T17:05:42.328Z,1.57
2018-09-15T17:08:10.666Z,1.50
2018-09-15T17:10:38.921Z,1.60
2018-09-15T17:13:07.075Z,1.10
2018-09-15T17:15:35.870Z,1.33
2018-09-15T17:18:04.054Z,1.47
2018-09-15T17:20:32.375Z,1.40
2018-09-15T17:23:00.622Z,1.57
2018-09-15T17:25:28.895Z,1.30
2018-09-15T17:27:57.169Z,1.60
2018-09-15T17:30:25.733Z,1.80
2018-09-15T17:32:53.969Z,1.83
2018-09-15T17:35:22.187Z,1.77
2018-09-15T17:37:50.314Z,1.60
2018-09-15T17:40:18.650Z,1.30
2018-09-15T17:42:46.961Z,1.53
2018-09-15T17:45:15.209Z,2.53
2018-09-15T17:47:44.522Z,2.47
2018-09-15T17:50:12.956Z,2.47
2018-09-15T17:52:41.320Z,3.00
2018-09-15T17:55:09.589Z,2.97
2018-09-15T17:57:37.703Z,3.10
2018-09-15T18:00:06.628Z,3.03
2018-09-15T18:02:35.387Z,2.40
2018-09-15T18:05:04.402Z,2.60
2018-09-15T18:07:32.651Z,2.10
2018-09-15T18:10:00.879Z,1.50
2018-09-15T18:12:29.084Z,2.80
2018-09-15T18:14:57.332Z,2.50
2018-09-15T18:17:25.514Z,2.13
2018-09-15T18:19:54.121Z,2.07
2018-09-15T18:22:22.294Z,2.53
2018-09-15T18:24:50.511Z,3.17
2018-09-15T18:27:19.540Z,2.83
2018-09-15T18:29:47.879Z,2.73
2018-09-15T18:32:16.192Z,2.80
2018-09-15T18:34:44.356Z,2.53
2018-09-15T18:37:12.601Z,2.70
2018-09-15T18:39:40.962Z,2.87
2018-09-15T18:42:09.220Z,2.83
2018-09-15T18:44:37.466Z,2.43
2018-09-15T18:47:06.296Z,2.50
2018-09-15T18:49:34.461Z,2.10
2018-09-15T18:52:02.738Z,2.00
2018-09-15T18:54:30.942Z,2.23
2018-09-15T18:56:59.062Z,2.43
2018-09-15T18:59:27.853Z,2.20
2018-09-15T19:01:56.709Z,2.80
2018-09-15T19:04:25.735Z,2.50
2018-09-15T19:06:53.938Z,2.53
2018-09-15T19:09:22.146Z,2.30
2018-09-15T19:11:50.325Z,2.90
2018-09-15T19:14:18.503Z,2.63
2018-09-15T19:16:46.722Z,2.90
2018-09-15T19:19:14.910Z,3.60
2018-09-15T19:21:43.170Z,3.17
2018-09-15T19:24:11.390Z,3.10
2018-09-15T19:26:39.709Z,3.20
2018-09-15T19:29:07.944Z,3.37
2018-09-15T19:31:36.122Z,3.60
2018-09-15T19:34:04.512Z,3.00
2018-09-15T19:36:32.726Z,2.83
2018-09-15T19:39:01.135Z,3.00
2018-09-15T19:41:29.486Z,3.00
2018-09-15T19:43:57.710Z,3.33
2018-09-15T19:46:26.541Z,3.50
2018-09-15T19:48:54.934Z,3.27
2018-09-15T19:51:23.110Z,3.40
2018-09-15T19:53:51.275Z,4.20
2018-09-15T19:56:19.488Z,4.60
2018-09-15T19:58:47.741Z,4.53
2018-09-15T20:01:16.121Z,4.33
2018-09-15T20:03:44.436Z,4.70
2018-09-15T20:06:12.769Z,4.67
2018-09-15T20:08:41.035Z,4.47
2018-09-15T20:11:09.339Z,5.07
2018-09-15T20:13:37.627Z,4.60
2018-09-15T20:16:04.169Z,4.70
2018-09-15T20:18:30.799Z,5.00
2018-09-15T20:20:57.349Z,4.60
2018-09-15T20:23:25.854Z,3.70
2018-09-15T20:25:54.179Z,4.47
2018-09-15T20:28:22.412Z,4.17
2018-09-15T20:30:50.593Z,4.47
2018-09-15T20:33:18.941Z,4.27
2018-09-15T20:35:47.102Z,5.10
2018-09-15T20:38:15.269Z,5.10
2018-09-15T20:40:43.609Z,6.67
2018-09-15T20:43:12.543Z,5.30
2018-09-15T20:45:40.849Z,6.10
2018-09-15T20:48:09.148Z,6.13
2018-09-15T20:50:37.588Z,5.77
2018-09-15T20:53:05.848Z,5.50
2018-09-15T20:55:34.088Z,5.77
2018-09-15T20:58:02.339Z,5.03
2018-09-15T21:00:30.573Z,5.37
2018-09-15T21:02:58.777Z,5.60
2018-09-15T21:05:26.922Z,6.43
2018-09-15T21:07:55.045Z,5.83
2018-09-15T21:10:23.304Z,6.47
2018-09-15T21:12:51.588Z,6.83
2018-09-15T21:15:19.832Z,7.37
2018-09-15T21:17:48.165Z,7.50
2018-09-15T21:20:16.503Z,10.43
2018-09-15T21:22:44.616Z,7.83
2018-09-15T21:25:12.916Z,7.67
2018-09-15T21:27:41.028Z,8.27
2018-09-15T21:30:09.196Z,8.60
2018-09-15T21:32:37.450Z,8.23
2018-09-15T21:35:05.668Z,7.80
2018-09-15T21:37:33.939Z,8.23
2018-09-15T21:40:02.097Z,8.07
2018-09-15T21:42:30.333Z,8.13
2018-09-15T21:44:58.500Z,8.27
2018-09-15T21:47:26.836Z,9.53
2018-09-15T21:49:55.103Z,11.10
2018-09-15T21:52:23.276Z,10.30
2018-09-15T21:54:51.580Z,10.13
2018-09-15T21:57:19.816Z,10.93
2018-09-15T21:59:48.029Z,10.97
2018-09-15T22:02:16.187Z,10.53
2018-09-15T22:04:44.447Z,11.37
2018-09-15T22:07:12.659Z,9.87
2018-09-15T22:09:41.074Z,10.70
2018-09-15T22:12:09.309Z,10.43
2018-09-15T22:14:37.585Z,11.60
2018-09-15T22:17:05.871Z,10.90
2018-09-15T22:19:34.121Z,11.37
2018-09-15T22:22:02.289Z,11.37
2018-09-15T22:24:30.455Z,10.30
2018-09-15T22:26:58.575Z,11.30
2018-09-15T22:29:26.818Z,11.57
2018-09-15T22:31:55.784Z,10.10
2018-09-15T22:34:24.051Z,9.97
2018-09-15T22:36:52.207Z,8.53
2018-09-15T22:39:20.377Z,7.97
2018-09-15T22:41:48.683Z,8.37
2018-09-15T22:44:16.985Z,7.97
2018-09-15T22:46:45.216Z,8.37
2018-09-15T22:49:13.474Z,8.80
2018-09-15T22:51:41.657Z,9.93
2018-09-15T22:54:09.918Z,9.23
2018-09-15T22:56:38.117Z,8.33
2018-09-15T22:59:06.595Z,7.83
2018-09-15T23:01:34.686Z,8.13
2018-09-15T23:04:03.955Z,9.67
2018-09-15T23:06:32.382Z,6.90
2018-09-15T23:09:00.511Z,8.30
2018-09-15T23:11:28.726Z,7.63
2018-09-15T23:13:56.847Z,6.60
2018-09-15T23:16:25.052Z,7.07
2018-09-15T23:18:53.302Z,6.40
2018-09-15T23:21:21.587Z,6.37
2018-09-15T23:23:49.831Z,7.53
2018-09-15T23:26:18.029Z,6.80
2018-09-15T23:28:46.432Z,6.57
2018-09-15T23:31:14.630Z,7.13
2018-09-15T23:33:42.792Z,7.07
2018-09-15T23:36:11.054Z,5.87
2018-09-15T23:38:39.473Z,5.90
2018-09-15T23:41:08.096Z,6.20
2018-09-15T23:43:36.728Z,6.63
2018-09-15T23:46:04.952Z,6.13
2018-09-15T23:48:33.138Z,5.70
2018-09-15T23:51:01.321Z,5.17
2018-09-15T23:53:29.600Z,6.30
2018-09-15T23:55:57.839Z,5.27
2018-09-15T23:58:26.156Z,5.27
